sensor_id;sensor_type;location;lat;lon;timestamp;temperature;humidity
14783;DHT22;7483;50.498;12.138;2023-03-23T00:00:59;13.40;99.90
14783;DHT22;7483;50.498;12.138;2023-03-23T00:03:27;13.50;99.90
14783;DHT22;7483;50.498;12.138;2023-03-23T00:05:58;13.60;99.90
14783;DHT22;7483;50.498;12.138;2023-03-23T00:08:30;13.60;99.90
14783;DHT22;7483;50.498;12.138;2023-03-23T00:10:59;13.50;99.90
14783;DHT22;7483;50.498;12.138;2023-03-23T00:13:28;13.50;99.90
14783;DHT22;7483;50.498;12.138;2023-03-23T00:15:55;13.60;99.90
14783;DHT22;7483;50.498;12.138;2023-03-23T00:18:24;13.50;99.90
14783;DHT22;7483;50.498;12.138;2023-03-23T00:20:52;13.50;99.90
14783;DHT22;7483;50.498;12.138;2023-03-23T00:23:24;13.50;99.90
14783;DHT22;7483;50.498;12.138;2023-03-23T00:25:53;13.50;99.90
14783;DHT22;7483;50.498;12.138;2023-03-23T00:28:23;13.50;99.90
14783;DHT22;7483;50.498;12.138;2023-03-23T00:30:56;13.50;99.90
14783;DHT22;7483;50.498;12.138;2023-03-23T00:33:24;13.50;99.90
14783;DHT22;7483;50.498;12.138;2023-03-23T00:35:53;13.50;99.90
14783;DHT22;7483;50.498;12.138;2023-03-23T00:38:23;13.50;99.90
14783;DHT22;7483;50.498;12.138;2023-03-23T00:40:52;13.50;99.90
14783;DHT22;7483;50.498;12.138;2023-03-23T00:43:21;13.60;99.90
14783;DHT22;7483;50.498;12.138;2023-03-23T00:45:50;13.60;99.90
14783;DHT22;7483;50.498;12.138;2023-03-23T00:48:19;13.60;99.90
14783;DHT22;7483;50.498;12.138;2023-03-23T00:50:46;13.60;99.90
14783;DHT22;7483;50.498;12.138;2023-03-23T00:53:14;13.60;99.90
14783;DHT22;7483;50.498;12.138;2023-03-23T00:55:44;13.60;99.90
14783;DHT22;7483;50.498;12.138;2023-03-23T00:58:13;13.70;99.90
14783;DHT22;7483;50.498;12.138;2023-03-23T01:00:42;13.80;99.90
14783;DHT22;7483;50.498;12.138;2023-03-23T01:03:10;13.70;99.90
14783;DHT22;7483;50.498;12.138;2023-03-23T01:05:43;13.80;99.90
14783;DHT22;7483;50.498;12.138;2023-03-23T01:08:14;13.70;99.90
14783;DHT22;7483;50.498;12.138;2023-03-23T01:10:43;13.70;99.90
14783;DHT22;7483;50.498;12.138;2023-03-23T01:13:10;13.80;99.90
14783;DHT22;7483;50.498;12.138;2023-03-23T01:15:38;13.80;99.90
14783;DHT22;7483;50.498;12.138;2023-03-23T01:18:05;13.80;99.90
14783;DHT22;7483;50.498;12.138;2023-03-23T01:20:32;13.80;99.90
14783;DHT22;7483;50.498;12.138;2023-03-23T01:22:59;13.80;99.90
14783;DHT22;7483;50.498;12.138;2023-03-23T01:25:27;13.80;99.90
14783;DHT22;7483;50.498;12.138;2023-03-23T01:27:58;13.70;99.90
14783;DHT22;7483;50.498;12.138;2023-03-23T01:30:25;13.80;99.90
14783;DHT22;7483;50.498;12.138;2023-03-23T01:32:54;13.70;99.90
14783;DHT22;7483;50.498;12.138;2023-03-23T01:35:22;13.70;99.90
14783;DHT22;7483;50.498;12.138;2023-03-23T01:37:51;13.70;99.90
14783;DHT22;7483;50.498;12.138;2023-03-23T01:40:18;13.70;99.90
14783;DHT22;7483;50.498;12.138;2023-03-23T01:42:45;13.70;99.90
14783;DHT22;7483;50.498;12.138;2023-03-23T01:45:24;13.60;99.90
14783;DHT22;7483;50.498;12.138;2023-03-23T01:48:03;13.70;99.90
14783;DHT22;7483;50.498;12.138;2023-03-23T01:50:37;13.70;99.90
14783;DHT22;7483;50.498;12.138;2023-03-23T01:53:10;13.70;99.90
14783;DHT22;7483;50.498;12.138;2023-03-23T01:55:39;13.70;99.90
14783;DHT22;7483;50.498;12.138;2023-03-23T01:58:11;13.70;99.90
14783;DHT22;7483;50.498;12.138;2023-03-23T02:00:40;13.70;99.90
14783;DHT22;7483;50.498;12.138;2023-03-23T02:03:09;13.70;99.90
14783;DHT22;7483;50.498;12.138;2023-03-23T02:05:40;13.70;99.90
14783;DHT22;7483;50.498;12.138;2023-03-23T02:08:14;13.70;99.90
14783;DHT22;7483;50.498;12.138;2023-03-23T02:10:44;13.70;99.90
14783;DHT22;7483;50.498;12.138;2023-03-23T02:13:12;13.70;99.90
14783;DHT22;7483;50.498;12.138;2023-03-23T02:15:47;13.70;99.90
14783;DHT22;7483;50.498;12.138;2023-03-23T02:18:31;13.60;99.90
14783;DHT22;7483;50.498;12.138;2023-03-23T02:21:42;13.60;99.90
14783;DHT22;7483;50.498;12.138;2023-03-23T02:24:39;13.60;99.90
14783;DHT22;7483;50.498;12.138;2023-03-23T02:27:35;13.50;99.90
14783;DHT22;7483;50.498;12.138;2023-03-23T02:30:27;13.50;99.90
14783;DHT22;7483;50.498;12.138;2023-03-23T02:36:20;13.50;99.90
14783;DHT22;7483;50.498;12.138;2023-03-23T02:38:59;13.40;99.90
14783;DHT22;7483;50.498;12.138;2023-03-23T02:41:36;13.30;99.90
14783;DHT22;7483;50.498;12.138;2023-03-23T02:44:07;13.30;99.90
14783;DHT22;7483;50.498;12.138;2023-03-23T02:46:36;13.30;99.90
14783;DHT22;7483;50.498;12.138;2023-03-23T02:49:09;13.20;99.90
14783;DHT22;7483;50.498;12.138;2023-03-23T02:51:39;13.20;99.90
14783;DHT22;7483;50.498;12.138;2023-03-23T02:54:11;13.20;99.90
14783;DHT22;7483;50.498;12.138;2023-03-23T02:56:40;13.20;99.90
14783;DHT22;7483;50.498;12.138;2023-03-23T02:59:16;13.20;99.90
14783;DHT22;7483;50.498;12.138;2023-03-23T03:02:00;13.30;99.90
14783;DHT22;7483;50.498;12.138;2023-03-23T03:04:33;13.30;99.90
14783;DHT22;7483;50.498;12.138;2023-03-23T03:07:30;13.20;99.90
14783;DHT22;7483;50.498;12.138;2023-03-23T03:10:08;13.20;99.90
14783;DHT22;7483;50.498;12.138;2023-03-23T03:12:46;13.10;99.90
14783;DHT22;7483;50.498;12.138;2023-03-23T03:15:25;13.10;99.90
14783;DHT22;7483;50.498;12.138;2023-03-23T03:18:03;13.10;99.90
14783;DHT22;7483;50.498;12.138;2023-03-23T03:20:42;13.10;99.90
14783;DHT22;7483;50.498;12.138;2023-03-23T03:23:13;13.10;99.90
14783;DHT22;7483;50.498;12.138;2023-03-23T03:25:45;13.10;99.90
14783;DHT22;7483;50.498;12.138;2023-03-23T03:28:20;13.10;99.90
14783;DHT22;7483;50.498;12.138;2023-03-23T03:30:53;13.10;99.90
14783;DHT22;7483;50.498;12.138;2023-03-23T03:33:23;13.10;99.90
14783;DHT22;7483;50.498;12.138;2023-03-23T03:35:55;13.10;99.90
14783;DHT22;7483;50.498;12.138;2023-03-23T03:38:24;13.10;99.90
14783;DHT22;7483;50.498;12.138;2023-03-23T03:40:55;13.10;99.90
14783;DHT22;7483;50.498;12.138;2023-03-23T03:43:23;13.10;99.90
14783;DHT22;7483;50.498;12.138;2023-03-23T03:45:50;13.10;99.90
14783;DHT22;7483;50.498;12.138;2023-03-23T03:48:17;13.00;99.90
14783;DHT22;7483;50.498;12.138;2023-03-23T03:50:44;13.00;99.90
14783;DHT22;7483;50.498;12.138;2023-03-23T03:53:13;13.00;99.90
14783;DHT22;7483;50.498;12.138;2023-03-23T03:55:41;13.00;99.90
14783;DHT22;7483;50.498;12.138;2023-03-23T03:58:14;13.00;99.90
14783;DHT22;7483;50.498;12.138;2023-03-23T04:01:08;13.00;99.90
14783;DHT22;7483;50.498;12.138;2023-03-23T04:03:37;13.00;99.90
14783;DHT22;7483;50.498;12.138;2023-03-23T04:06:13;13.00;99.90
14783;DHT22;7483;50.498;12.138;2023-03-23T04:08:42;13.00;99.90
14783;DHT22;7483;50.498;12.138;2023-03-23T04:11:11;13.00;99.90
14783;DHT22;7483;50.498;12.138;2023-03-23T04:13:40;13.00;99.90
14783;DHT22;7483;50.498;12.138;2023-03-23T04:16:18;13.00;99.90
14783;DHT22;7483;50.498;12.138;2023-03-23T04:18:47;13.00;99.90
14783;DHT22;7483;50.498;12.138;2023-03-23T04:21:16;13.10;99.90
14783;DHT22;7483;50.498;12.138;2023-03-23T04:23:47;13.10;99.90
14783;DHT22;7483;50.498;12.138;2023-03-23T04:26:14;13.10;99.90
14783;DHT22;7483;50.498;12.138;2023-03-23T04:28:45;13.00;99.90
14783;DHT22;7483;50.498;12.138;2023-03-23T04:31:31;13.00;99.90
14783;DHT22;7483;50.498;12.138;2023-03-23T04:34:15;13.10;99.90
14783;DHT22;7483;50.498;12.138;2023-03-23T04:36:46;13.00;99.90
14783;DHT22;7483;50.498;12.138;2023-03-23T04:39:22;13.00;99.90
14783;DHT22;7483;50.498;12.138;2023-03-23T04:41:51;13.00;99.90
14783;DHT22;7483;50.498;12.138;2023-03-23T04:44:26;13.00;99.90
14783;DHT22;7483;50.498;12.138;2023-03-23T04:47:01;12.90;99.90
14783;DHT22;7483;50.498;12.138;2023-03-23T04:49:32;12.90;99.90
14783;DHT22;7483;50.498;12.138;2023-03-23T04:52:11;12.90;99.90
14783;DHT22;7483;50.498;12.138;2023-03-23T04:54:44;13.00;99.90
14783;DHT22;7483;50.498;12.138;2023-03-23T04:57:11;13.00;99.90
14783;DHT22;7483;50.498;12.138;2023-03-23T04:59:45;13.10;99.90
14783;DHT22;7483;50.498;12.138;2023-03-23T05:02:19;13.10;99.90
14783;DHT22;7483;50.498;12.138;2023-03-23T05:04:48;13.10;99.90
14783;DHT22;7483;50.498;12.138;2023-03-23T05:07:19;13.10;99.90
14783;DHT22;7483;50.498;12.138;2023-03-23T05:09:49;13.10;99.90
14783;DHT22;7483;50.498;12.138;2023-03-23T05:12:20;13.00;99.90
14783;DHT22;7483;50.498;12.138;2023-03-23T05:14:58;13.10;99.90
14783;DHT22;7483;50.498;12.138;2023-03-23T05:17:28;13.20;99.90
14783;DHT22;7483;50.498;12.138;2023-03-23T05:19:58;13.20;99.90
14783;DHT22;7483;50.498;12.138;2023-03-23T05:22:57;13.20;99.90
14783;DHT22;7483;50.498;12.138;2023-03-23T05:25:31;13.20;99.90
14783;DHT22;7483;50.498;12.138;2023-03-23T05:28:06;13.20;99.90
14783;DHT22;7483;50.498;12.138;2023-03-23T05:31:06;13.20;99.90
14783;DHT22;7483;50.498;12.138;2023-03-23T05:33:33;13.20;99.90
14783;DHT22;7483;50.498;12.138;2023-03-23T05:36:08;13.20;99.90
14783;DHT22;7483;50.498;12.138;2023-03-23T05:38:56;13.20;99.90
14783;DHT22;7483;50.498;12.138;2023-03-23T05:41:31;13.20;99.90
14783;DHT22;7483;50.498;12.138;2023-03-23T05:43:59;13.20;99.90
14783;DHT22;7483;50.498;12.138;2023-03-23T05:46:37;13.20;99.90
14783;DHT22;7483;50.498;12.138;2023-03-23T05:49:05;13.30;99.90
14783;DHT22;7483;50.498;12.138;2023-03-23T05:51:37;13.30;99.90
14783;DHT22;7483;50.498;12.138;2023-03-23T05:54:05;13.30;99.90
14783;DHT22;7483;50.498;12.138;2023-03-23T05:56:34;13.30;99.90
14783;DHT22;7483;50.498;12.138;2023-03-23T05:59:14;13.30;99.90
14783;DHT22;7483;50.498;12.138;2023-03-23T06:01:44;13.30;99.90
14783;DHT22;7483;50.498;12.138;2023-03-23T06:04:11;13.40;99.90
14783;DHT22;7483;50.498;12.138;2023-03-23T06:06:51;13.30;99.90
14783;DHT22;7483;50.498;12.138;2023-03-23T06:09:18;13.40;99.90
14783;DHT22;7483;50.498;12.138;2023-03-23T06:12:07;13.40;99.90
14783;DHT22;7483;50.498;12.138;2023-03-23T06:14:48;13.40;99.90
14783;DHT22;7483;50.498;12.138;2023-03-23T06:17:21;13.40;99.90
14783;DHT22;7483;50.498;12.138;2023-03-23T06:19:51;13.40;99.90
14783;DHT22;7483;50.498;12.138;2023-03-23T06:22:20;13.40;99.90
14783;DHT22;7483;50.498;12.138;2023-03-23T06:25:05;13.40;99.90
14783;DHT22;7483;50.498;12.138;2023-03-23T06:27:40;13.50;99.90
14783;DHT22;7483;50.498;12.138;2023-03-23T06:30:09;13.40;99.90
14783;DHT22;7483;50.498;12.138;2023-03-23T06:32:38;13.50;99.90
14783;DHT22;7483;50.498;12.138;2023-03-23T06:35:09;13.50;99.90
14783;DHT22;7483;50.498;12.138;2023-03-23T06:37:59;13.50;99.90
14783;DHT22;7483;50.498;12.138;2023-03-23T06:40:47;13.50;99.90
14783;DHT22;7483;50.498;12.138;2023-03-23T06:43:16;13.50;99.90
14783;DHT22;7483;50.498;12.138;2023-03-23T06:45:57;13.50;99.90
14783;DHT22;7483;50.498;12.138;2023-03-23T06:48:40;13.40;99.90
14783;DHT22;7483;50.498;12.138;2023-03-23T06:51:10;13.40;99.90
14783;DHT22;7483;50.498;12.138;2023-03-23T06:53:39;13.50;99.90
